Aérodrome :
LOGIN :

S'inscrire | Disclaimer

   EN    FR    IT 

 










Légende :    VFR   VFR Marginal   IFR   IFR Intensif   IFR Très Intensif
Visi : 
Plafond : 
>= 8 km
>= 3000ft
5 à 8 km
1000 à 3000 ft
1500m à 5 km
500 à 1000 ft
800 à 1500m
200 à 500 ft
< 800m
< 200 ft
Symboles :   Orages  Brouillard  Fortes neiges  Fortes précipitations  Vent > 20 kt
SIGMETs :   Divers  Orages  Givrage  Turbulence  Onde Orograph.  Cendres Volcan.






- Altitude de l'aérodrome : 1106 ft


LFSO - Nancy / Ochey

DERNIER METAR :
  • 031030Z AUTO 29007KT 180V350 CAVOK 26/07 Q1006 BECMG SCT060CB

METARs EXPIRÉS :
  • 031000Z AUTO 27007KT 220V320 CAVOK 25/07 Q1007 BECMG SCT060CB
  • 030930Z AUTO 28003KT 190V350 CAVOK 25/09 Q1007 BECMG SCT060CB
  • 030900Z AUTO 25005KT 200V290 CAVOK 24/09 Q1007 NOSIG
  • 030830Z AUTO 22004KT 130V270 CAVOK 23/11 Q1007
  • 030800Z AUTO VRB02KT CAVOK 23/12 Q1007

TAF TAF LFSO
Valide du 03 à 09h jusqu'au 04 à 09h UTC


030800Z 0309/0409 25005KT CAVOK
BECMG 0311/0313 SCT060CB
TEMPO 0314/0409 29015G25KT 4000 -SHRA
PROB40
TEMPO 0317/0319 VRB15G30KT 1500 -TSRA
PROB30
TEMPO 0407/0409 22015G25KT 1500 -TSRA BKN007 BKN015CB



MET'MAP, la Météo Aéronautique d'un coup d'oeil ! - Copyright ORBIFLY Décembre 2007 - Disclaimer

ORBIFLY MET'MAP TEAM :

Programmation & Développement : Alexandra Zaïnal
Sur une idée originale de : Baudouin d'Aumeries
Assistance à la programmation : Marc-Olivier Méhu
Soutien technique & logistique : Manuel Goepfert

Contact : metmap@orbifly.com




SOURCES & CREDITS :

   NOAA